createdAt,value
2019-05-01T00:01:14.348Z,22.77
2019-05-01T00:06:16.826Z,24.90
2019-05-01T00:11:19.289Z,28.10
2019-05-01T00:16:21.770Z,24.83
2019-05-01T00:21:24.253Z,30.63
2019-05-01T00:26:26.707Z,29.23
2019-05-01T00:31:29.178Z,31.27
2019-05-01T00:36:31.656Z,32.43
2019-05-01T00:41:34.133Z,26.50
2019-05-01T00:46:36.608Z,32.60
2019-05-01T00:51:39.080Z,32.47
2019-05-01T00:56:47.382Z,28.53
2019-05-01T01:01:49.861Z,25.33
2019-05-01T01:06:52.338Z,29.03
2019-05-01T01:11:54.814Z,30.47
2019-05-01T01:16:57.267Z,31.00
2019-05-01T01:21:59.735Z,29.67
2019-05-01T01:27:02.219Z,30.70
2019-05-01T01:32:04.688Z,29.17
2019-05-01T01:37:07.154Z,28.67
2019-05-01T01:42:09.613Z,27.07
2019-05-01T01:47:12.074Z,25.77
2019-05-01T01:52:14.547Z,27.20
2019-05-01T01:57:17.016Z,31.43
2019-05-01T02:02:19.481Z,27.33
2019-05-01T02:07:21.941Z,21.33
2019-05-01T02:12:24.409Z,24.97
2019-05-01T02:17:26.881Z,20.80
2019-05-01T02:22:29.345Z,23.67
2019-05-01T02:27:47.099Z,24.53
2019-05-01T02:32:49.564Z,24.17
2019-05-01T02:37:52.232Z,22.83
2019-05-01T02:42:54.697Z,20.07
2019-05-01T02:47:57.163Z,24.97
2019-05-01T02:52:59.624Z,19.67
2019-05-01T02:58:02.095Z,21.27
2019-05-01T03:03:04.556Z,22.77
2019-05-01T03:08:07.020Z,17.67
2019-05-01T03:13:09.478Z,20.77
2019-05-01T03:18:27.127Z,17.83
2019-05-01T03:23:32.554Z,17.67
2019-05-01T03:28:35.019Z,18.83
2019-05-01T03:33:37.494Z,20.93
2019-05-01T03:38:39.959Z,18.93
2019-05-01T03:43:42.416Z,17.33
2019-05-01T03:48:44.879Z,17.57
2019-05-01T03:53:47.350Z,17.27
2019-05-01T03:58:49.817Z,18.43
2019-05-01T04:03:52.297Z,14.60
2019-05-01T04:08:56.514Z,17.80
2019-05-01T04:13:57.235Z,19.47
2019-05-01T04:18:59.681Z,17.60
2019-05-01T04:24:02.138Z,18.23
2019-05-01T04:29:13.668Z,18.47
2019-05-01T04:34:22.143Z,17.87
2019-05-01T04:39:24.612Z,20.73
2019-05-01T04:44:27.071Z,17.57
2019-05-01T04:49:29.534Z,21.00
2019-05-01T04:54:31.988Z,17.53
2019-05-01T04:59:34.447Z,17.47
2019-05-01T05:04:36.910Z,17.77
2019-05-01T05:09:42.308Z,19.37
2019-05-01T05:14:44.756Z,22.63
2019-05-01T05:19:47.226Z,19.87
2019-05-01T05:24:49.722Z,17.37
2019-05-01T05:29:52.201Z,17.97
2019-05-01T05:34:54.676Z,20.43
2019-05-01T05:39:57.148Z,19.20
2019-05-01T05:44:59.622Z,15.97
2019-05-01T05:50:02.102Z,16.50
2019-05-01T05:55:04.582Z,15.07
2019-05-01T06:00:25.080Z,30.33
2019-05-01T06:05:30.508Z,15.03
2019-05-01T06:10:32.981Z,19.97
2019-05-01T06:15:36.629Z,20.43
2019-05-01T06:20:47.122Z,19.93
2019-05-01T06:25:54.173Z,19.93
2019-05-01T06:30:52.180Z,18.10
2019-05-01T06:35:54.708Z,21.40
2019-05-01T06:40:58.133Z,20.73
2019-05-01T06:46:13.304Z,20.57
2019-05-01T06:51:32.344Z,21.30
2019-05-01T06:56:34.822Z,22.07
2019-05-01T07:01:37.336Z,22.53
2019-05-01T07:06:39.817Z,20.93
2019-05-01T07:11:42.722Z,20.53
2019-05-01T07:16:44.754Z,21.00
2019-05-01T07:21:47.223Z,23.57
2019-05-01T07:26:49.702Z,16.13
2019-05-01T07:31:52.174Z,18.10
2019-05-01T07:36:54.647Z,23.37
2019-05-01T07:41:57.123Z,14.47
2019-05-01T07:47:05.447Z,15.37
2019-05-01T07:52:08.038Z,13.93
2019-05-01T07:57:10.500Z,17.50
2019-05-01T08:02:12.979Z,14.93
2019-05-01T08:07:15.436Z,14.70
2019-05-01T08:12:18.852Z,14.90
2019-05-01T08:17:20.395Z,14.80
2019-05-01T08:22:22.880Z,12.37
2019-05-01T08:27:28.264Z,16.27
2019-05-01T08:32:39.128Z,11.82
2019-05-01T08:37:39.116Z,9.52
2019-05-01T08:42:42.688Z,8.00
2019-05-01T08:47:44.011Z,8.18
2019-05-01T08:52:47.473Z,8.50
2019-05-01T08:57:48.962Z,7.22
2019-05-01T09:02:51.409Z,7.47
2019-05-01T09:07:56.032Z,7.30
2019-05-01T09:12:56.311Z,6.87
2019-05-01T09:17:58.769Z,7.83
2019-05-01T09:23:01.238Z,7.00
2019-05-01T09:28:04.281Z,8.18
2019-05-01T09:33:06.129Z,7.10
2019-05-01T09:38:08.612Z,7.40
2019-05-01T09:43:11.077Z,8.23
2019-05-01T09:48:13.549Z,10.07
2019-05-01T09:53:34.209Z,8.13
2019-05-01T09:58:33.783Z,7.45
2019-05-01T10:03:36.242Z,9.60
2019-05-01T10:08:40.053Z,7.47
2019-05-01T10:13:41.189Z,7.50
2019-05-01T10:18:43.669Z,8.00
2019-05-01T10:23:47.131Z,7.37
2019-05-01T10:29:00.814Z,6.75
2019-05-01T10:34:07.551Z,6.95
2019-05-01T10:39:05.760Z,9.18
2019-05-01T10:44:08.233Z,10.50
2019-05-01T10:49:10.699Z,9.00
2019-05-01T10:54:13.161Z,6.68
2019-05-01T10:59:15.648Z,8.02
2019-05-01T11:04:18.171Z,9.48
2019-05-01T11:09:20.643Z,7.97
2019-05-01T11:14:23.119Z,10.55
2019-05-01T11:19:25.586Z,8.68
2019-05-01T11:24:28.044Z,9.07
2019-05-01T11:29:30.501Z,18.80
2019-05-01T11:34:51.313Z,8.88
2019-05-01T11:39:59.909Z,6.78
2019-05-01T11:45:02.417Z,6.87
2019-05-01T11:50:04.873Z,7.50
2019-05-01T11:55:07.325Z,5.20
2019-05-01T12:00:09.777Z,7.45
2019-05-01T12:05:12.247Z,9.13
2019-05-01T12:10:14.713Z,6.93
2019-05-01T12:15:17.189Z,8.05
2019-05-01T12:20:19.642Z,6.72
2019-05-01T12:25:22.099Z,8.25
2019-05-01T12:30:24.578Z,8.10
2019-05-01T12:35:27.046Z,8.55
2019-05-01T12:40:29.503Z,6.15
2019-05-01T12:45:32.037Z,7.22
2019-05-01T12:50:34.517Z,11.38
2019-05-01T12:55:55.254Z,11.43
2019-05-01T13:00:57.709Z,17.23
2019-05-01T13:06:00.180Z,10.70
2019-05-01T13:11:02.641Z,11.17
2019-05-01T13:16:05.120Z,10.30
2019-05-01T13:21:07.578Z,8.57
2019-05-01T13:26:10.048Z,10.10
2019-05-01T13:31:12.512Z,7.63
2019-05-01T13:36:15.015Z,24.33
2019-05-01T13:41:17.483Z,11.20
2019-05-01T13:46:19.995Z,10.10
2019-05-01T13:51:22.449Z,12.70
2019-05-01T13:56:25.517Z,10.80
2019-05-01T14:01:27.809Z,10.73
2019-05-01T14:06:30.264Z,8.53
2019-05-01T14:11:32.732Z,8.43
2019-05-01T14:16:35.211Z,10.83
2019-05-01T14:21:37.737Z,13.20
2019-05-01T14:26:40.181Z,10.57
2019-05-01T14:31:42.700Z,14.80
2019-05-01T14:36:45.181Z,11.30
2019-05-01T14:41:47.651Z,11.33
2019-05-01T14:46:50.105Z,14.37
2019-05-01T14:51:52.583Z,12.83
2019-05-01T14:56:55.047Z,8.93
2019-05-01T15:01:57.498Z,11.00
2019-05-01T15:06:59.972Z,9.67
2019-05-01T15:12:02.442Z,12.17
2019-05-01T15:17:04.901Z,8.60
2019-05-01T15:22:07.364Z,9.80
2019-05-01T15:27:09.822Z,11.57
2019-05-01T15:32:12.375Z,9.30
2019-05-01T15:37:14.845Z,8.93
2019-05-01T15:42:29.530Z,10.77
2019-05-01T15:47:31.996Z,9.43
2019-05-01T15:52:34.487Z,10.70
2019-05-01T15:57:36.976Z,13.13
2019-05-01T16:02:39.427Z,7.27
2019-05-01T16:07:41.894Z,10.80
2019-05-01T16:12:44.358Z,12.50
2019-05-01T16:17:46.813Z,16.20
2019-05-01T16:22:49.297Z,10.07
2019-05-01T16:27:51.776Z,11.80
2019-05-01T16:32:54.248Z,10.63
2019-05-01T16:37:56.724Z,11.43
2019-05-01T16:42:59.173Z,8.83
2019-05-01T16:48:01.635Z,12.53
2019-05-01T16:53:04.143Z,10.77
2019-05-01T16:58:06.629Z,10.50
2019-05-01T17:03:14.964Z,11.03
2019-05-01T17:08:20.442Z,7.80
2019-05-01T17:13:22.909Z,9.17
2019-05-01T17:18:25.360Z,8.63
2019-05-01T17:23:27.818Z,19.23
2019-05-01T17:28:32.698Z,10.47
2019-05-01T17:33:32.931Z,11.37
2019-05-01T17:38:35.391Z,10.77
2019-05-01T17:43:37.894Z,13.40
2019-05-01T17:48:40.360Z,10.60
2019-05-01T17:53:42.828Z,8.77
2019-05-01T17:58:45.308Z,11.47
2019-05-01T18:03:53.950Z,7.30
2019-05-01T18:09:02.874Z,9.10
2019-05-01T18:13:58.884Z,10.37
2019-05-01T18:19:01.597Z,8.93
2019-05-01T18:24:10.299Z,13.73
2019-05-01T18:29:12.792Z,10.10
2019-05-01T18:34:15.276Z,11.03
2019-05-01T18:39:25.807Z,14.67
2019-05-01T18:44:26.201Z,18.77
2019-05-01T18:49:28.666Z,13.47
2019-05-01T18:54:35.022Z,13.10
2019-05-01T18:59:33.658Z,14.40
2019-05-01T19:04:37.792Z,17.87
2019-05-01T19:09:38.596Z,16.57
2019-05-01T19:14:41.083Z,14.67
2019-05-01T19:19:43.620Z,12.13
2019-05-01T19:24:46.119Z,15.53
2019-05-01T19:29:48.595Z,18.70
2019-05-01T19:34:51.090Z,14.87
2019-05-01T19:39:54.981Z,12.17
2019-05-01T19:44:57.443Z,14.13
2019-05-01T19:50:06.659Z,12.97
2019-05-01T19:55:01.344Z,13.80
2019-05-01T20:00:03.483Z,21.30
2019-05-01T20:05:05.931Z,18.33
2019-05-01T20:10:08.427Z,16.70
2019-05-01T20:15:10.895Z,19.97
2019-05-01T20:20:13.357Z,22.50
2019-05-01T20:25:19.397Z,25.93
2019-05-01T20:30:18.358Z,36.47
2019-05-01T20:35:23.882Z,31.13
2019-05-01T20:40:23.352Z,33.37
2019-05-01T20:45:25.870Z,30.60
2019-05-01T20:50:28.306Z,44.03
2019-05-01T20:55:30.784Z,46.53
2019-05-01T21:00:33.333Z,32.03
2019-05-01T21:05:35.792Z,27.00
2019-05-01T21:10:51.074Z,24.40
2019-05-01T21:15:56.456Z,24.50
2019-05-01T21:20:56.232Z,25.23
2019-05-01T21:25:58.710Z,17.40
2019-05-01T21:31:01.190Z,17.00
2019-05-01T21:36:04.864Z,23.60
2019-05-01T21:41:06.170Z,44.53
2019-05-01T21:46:08.640Z,77.13
2019-05-01T21:51:12.576Z,100.60
2019-05-01T21:56:13.572Z,65.50
2019-05-01T22:01:16.089Z,44.40
2019-05-01T22:06:18.589Z,35.17
2019-05-01T22:11:21.052Z,42.20
2019-05-01T22:16:23.705Z,27.03
2019-05-01T22:21:25.993Z,22.90
2019-05-01T22:26:28.459Z,19.97
2019-05-01T22:31:52.931Z,21.93
2019-05-01T22:36:51.212Z,15.70
2019-05-01T22:41:53.675Z,19.93
2019-05-01T22:46:56.144Z,16.63
2019-05-01T22:51:58.621Z,17.80
2019-05-01T22:57:01.082Z,17.43
2019-05-01T23:02:03.539Z,18.17
2019-05-01T23:07:06.016Z,13.93
2019-05-01T23:12:08.487Z,16.50
2019-05-01T23:17:10.949Z,16.50
2019-05-01T23:22:13.418Z,14.23
2019-05-01T23:27:15.876Z,18.33
2019-05-01T23:32:18.356Z,17.90
2019-05-01T23:37:20.820Z,17.80
2019-05-01T23:42:23.295Z,16.10
2019-05-01T23:47:25.759Z,17.40
2019-05-01T23:52:28.218Z,16.30
2019-05-01T23:57:30.679Z,15.70
